Time;durP1;ratioP1;P1;durP2;ratioP2;P2;SDS_P1;SDS_P2;PMS_P1;PMS_P2;Temp;Humidity;BMP_temperature;BMP_pressure;BME280_temperature;BME280_humidity;BME280_pressure;Samples;Min_cycle;Max_cycle;Signal;HPM_P1;HPM_P2
2021/09/01 00:01:50;;;;;;;1.75;1.65;;;;;;;25.68;42.15;98976.05;1687760;83;21003;-43
2021/09/01 00:04:16;;;;;;;1.70;1.60;;;;;;;25.68;42.17;98973.36;1662663;84;20988;-43
2021/09/01 00:06:44;;;;;;;1.72;1.62;;;;;;;25.66;42.20;98968.12;1684620;83;21082;-45
2021/09/01 00:09:12;;;;;;;2.47;1.87;;;;;;;25.67;42.19;98968.96;1681349;83;20955;-43
2021/09/01 00:11:41;;;;;;;1.45;1.35;;;;;;;25.66;42.18;98967.30;1687777;83;21537;-46
2021/09/01 00:14:07;;;;;;;2.40;1.62;;;;;;;25.66;42.20;98975.38;1672921;83;21102;-43
2021/09/01 00:16:34;;;;;;;1.70;1.60;;;;;;;25.64;42.21;98970.16;1669647;84;21229;-44
2021/09/01 00:19:03;;;;;;;2.02;1.82;;;;;;;25.64;42.23;98970.16;1654336;84;21091;-45
2021/09/01 00:21:30;;;;;;;1.70;1.60;;;;;;;25.63;42.24;98968.45;1688676;81;21014;-46
2021/09/01 00:23:56;;;;;;;1.80;1.70;;;;;;;25.63;42.24;98970.31;1715550;82;21086;-44
2021/09/01 00:26:23;;;;;;;2.00;1.90;;;;;;;25.62;42.25;98976.70;1699588;83;21042;-48
2021/09/01 00:28:49;;;;;;;1.62;1.52;;;;;;;25.61;42.27;98974.52;1713528;81;21003;-43
2021/09/01 00:31:18;;;;;;;1.80;1.65;;;;;;;25.61;42.27;98975.02;1708227;82;21067;-45
2021/09/01 00:33:46;;;;;;;2.35;1.90;;;;;;;25.60;42.30;98974.16;1711325;81;21073;-44
2021/09/01 00:36:12;;;;;;;1.65;1.55;;;;;;;25.59;42.30;98976.02;1719043;82;21140;-45
2021/09/01 00:38:40;;;;;;;2.33;1.70;;;;;;;25.58;42.28;98964.89;1696988;82;21052;-45
2021/09/01 00:41:07;;;;;;;2.15;1.87;;;;;;;25.58;42.32;98962.20;1690818;83;21006;-45
2021/09/01 00:43:33;;;;;;;2.10;1.90;;;;;;;25.57;42.28;98956.48;1690945;83;21967;-43
2021/09/01 00:45:59;;;;;;;1.75;1.65;;;;;;;25.57;42.31;98959.18;1671111;83;21097;-47
2021/09/01 00:48:26;;;;;;;1.55;1.45;;;;;;;25.56;42.32;98956.14;1677291;83;21907;-45
2021/09/01 00:50:56;;;;;;;1.98;1.77;;;;;;;25.56;42.32;98949.92;1706611;82;21182;-45
2021/09/01 00:53:26;;;;;;;1.62;1.52;;;;;;;25.55;42.33;98950.43;1671296;84;21016;-44
2021/09/01 00:55:53;;;;;;;1.65;1.55;;;;;;;25.54;42.33;98948.73;1688790;83;21071;-44
2021/09/01 00:58:20;;;;;;;2.65;1.60;;;;;;;25.55;42.34;98952.25;1678243;83;21159;-47
2021/09/01 01:03:33;;;;;;;1.65;1.55;;;;;;;25.52;42.35;98952.09;1687974;83;21654;-44
2021/09/01 01:06:00;;;;;;;1.70;1.60;;;;;;;25.52;42.35;98951.23;1686738;83;21039;-47
2021/09/01 01:08:28;;;;;;;1.80;1.62;;;;;;;25.52;42.36;98955.27;1683572;83;21043;-45
2021/09/01 01:10:57;;;;;;;1.85;1.75;;;;;;;25.50;42.38;98957.29;1685340;83;22444;-43
2021/09/01 01:13:27;;;;;;;1.67;1.57;;;;;;;25.50;42.36;98951.91;1684204;83;21161;-44
2021/09/01 01:15:56;;;;;;;1.60;1.50;;;;;;;25.49;42.39;98953.77;1688159;83;20985;-42
2021/09/01 01:18:23;;;;;;;1.57;1.47;;;;;;;25.48;42.40;98954.76;1687777;81;20979;-43
2021/09/01 01:20:50;;;;;;;1.65;1.55;;;;;;;25.48;42.40;98943.98;1722174;80;21126;-42
2021/09/01 01:23:17;;;;;;;2.00;1.80;;;;;;;25.47;42.43;98945.02;1696446;82;21080;-42
2021/09/01 01:25:44;;;;;;;1.60;1.50;;;;;;;25.47;42.41;98955.78;1700200;82;21775;-42
2021/09/01 01:28:11;;;;;;;1.80;1.70;;;;;;;25.46;42.43;98952.73;1720918;82;20979;-42
2021/09/01 01:30:40;;;;;;;1.40;1.30;;;;;;;25.45;42.44;98947.00;1719035;82;21045;-42
2021/09/01 01:33:08;;;;;;;1.52;1.42;;;;;;;25.45;42.42;98951.03;1717696;82;21108;-42
2021/09/01 01:35:42;;;;;;;1.50;1.40;;;;;;;25.44;42.46;98942.64;1702263;81;21053;-42
2021/09/01 01:38:12;;;;;;;2.12;1.70;;;;;;;25.44;42.45;98946.67;1706788;82;21074;-42
2021/09/01 01:40:40;;;;;;;1.87;1.45;;;;;;;25.43;42.47;98942.28;1706423;82;20931;-44
2021/09/01 01:43:07;;;;;;;1.50;1.40;;;;;;;25.42;42.46;98940.62;1675874;83;21224;-43
2021/09/01 01:45:39;;;;;;;1.30;1.25;;;;;;;25.43;42.48;98932.02;1688104;83;21095;-42
2021/09/01 01:48:07;;;;;;;3.15;1.50;;;;;;;25.41;42.50;98932.18;1706454;82;21002;-42
2021/09/01 01:50:35;;;;;;;1.80;1.50;;;;;;;25.40;42.50;98929.14;1709904;82;21186;-43
2021/09/01 01:53:02;;;;;;;1.67;1.57;;;;;;;25.39;42.49;98928.30;1680451;82;21058;-44
2021/09/01 01:55:28;;;;;;;1.55;1.40;;;;;;;25.39;42.51;98928.81;1667928;84;22470;-43
2021/09/01 01:57:55;;;;;;;1.42;1.32;;;;;;;25.38;42.51;98919.04;1669250;84;21508;-43
2021/09/01 02:00:21;;;;;;;1.70;1.60;;;;;;;25.38;42.54;98912.30;1669104;84;21090;-43
2021/09/01 02:02:48;;;;;;;2.02;1.50;;;;;;;25.36;42.52;98908.42;1677551;84;21166;-42
2021/09/01 02:05:15;;;;;;;1.55;1.45;;;;;;;25.37;42.52;98913.33;1666223;84;21061;-43
2021/09/01 02:07:41;;;;;;;1.55;1.45;;;;;;;25.36;42.52;98900.34;1630961;86;21135;-42
2021/09/01 02:10:09;;;;;;;1.55;1.40;;;;;;;25.35;42.54;98904.06;1639912;84;21129;-42
2021/09/01 02:12:40;;;;;;;1.45;1.35;;;;;;;25.35;42.54;98897.34;1679283;84;21510;-43
2021/09/01 02:15:09;;;;;;;1.60;1.27;;;;;;;25.34;42.54;98894.80;1670706;84;21065;-44
2021/09/01 02:17:35;;;;;;;1.77;1.42;;;;;;;25.33;42.54;98894.45;1681128;83;21090;-42
2021/09/01 02:20:03;;;;;;;1.60;1.50;;;;;;;25.33;42.54;98885.02;1663198;84;21021;-42
2021/09/01 02:22:30;;;;;;;1.50;1.40;;;;;;;25.32;42.55;98884.19;1714588;81;21506;-43
2021/09/01 02:24:56;;;;;;;1.20;1.20;;;;;;;25.32;42.56;98882.02;1717746;81;21530;-42
2021/09/01 02:27:23;;;;;;;1.30;1.20;;;;;;;25.30;42.56;98878.13;1706526;81;21833;-42
2021/09/01 02:29:49;;;;;;;1.57;1.37;;;;;;;25.30;42.58;98879.48;1680326;83;21120;-42
2021/09/01 02:32:16;;;;;;;1.40;1.30;;;;;;;25.30;42.57;98884.00;1677446;83;21148;-43
2021/09/01 02:34:42;;;;;;;1.40;1.27;;;;;;;25.30;42.59;98890.73;1702893;83;21535;-43
2021/09/01 02:37:08;;;;;;;1.65;1.55;;;;;;;25.29;42.58;98898.48;1675255;83;21089;-42
2021/09/01 02:39:35;;;;;;;1.42;1.32;;;;;;;25.28;42.60;98900.83;1688727;83;21783;-43
2021/09/01 02:42:03;;;;;;;1.32;1.20;;;;;;;25.27;42.61;98897.30;1691932;83;21074;-44
2021/09/01 02:44:30;;;;;;;1.22;1.12;;;;;;;25.27;42.59;98892.40;1687281;83;21055;-42
2021/09/01 02:46:57;;;;;;;1.40;1.30;;;;;;;25.26;42.61;98898.78;1685721;83;21047;-42
2021/09/01 02:49:23;;;;;;;3.17;1.10;;;;;;;25.26;42.62;98901.47;1686114;83;21011;-44
2021/09/01 02:51:50;;;;;;;1.52;1.42;;;;;;;25.26;42.62;98888.01;1691976;83;21074;-42
2021/09/01 02:54:16;;;;;;;1.47;1.37;;;;;;;25.25;42.63;98887.66;1687746;83;21026;-42
2021/09/01 02:56:43;;;;;;;1.30;1.20;;;;;;;25.25;42.64;98891.21;1685568;83;21097;-44
2021/09/01 02:59:10;;;;;;;1.37;1.27;;;;;;;25.22;42.64;98893.71;1689463;83;21794;-43
2021/09/01 03:01:37;;;;;;;1.80;1.70;;;;;;;25.24;42.66;98892.72;1676002;83;21154;-43
2021/09/01 03:04:04;;;;;;;1.50;1.40;;;;;;;25.22;42.67;98895.57;1675619;83;21141;-44
2021/09/01 03:06:32;;;;;;;1.50;1.40;;;;;;;25.22;42.66;98896.41;1684792;83;21977;-43
2021/09/01 03:09:00;;;;;;;1.50;1.30;;;;;;;25.22;42.65;98895.57;1688942;83;21098;-48
2021/09/01 03:11:26;;;;;;;1.52;1.42;;;;;;;25.21;42.66;98888.48;1685368;83;21767;-43
2021/09/01 03:13:54;;;;;;;1.25;1.20;;;;;;;25.21;42.66;98889.32;1687956;83;20984;-43
2021/09/01 03:16:21;;;;;;;1.40;1.30;;;;;;;25.21;42.66;98882.59;1697510;83;21143;-42
2021/09/01 03:18:48;;;;;;;1.40;1.40;;;;;;;25.20;42.65;98882.27;1717104;83;21108;-42
2021/09/01 03:21:14;;;;;;;1.57;1.47;;;;;;;25.21;42.65;98880.41;1678125;82;21605;-42
2021/09/01 03:23:41;;;;;;;1.45;1.35;;;;;;;25.20;42.64;98878.23;1698614;82;21091;-43
2021/09/01 03:26:08;;;;;;;1.62;1.52;;;;;;;25.21;42.61;98878.55;1723229;82;21024;-42
2021/09/01 03:28:34;;;;;;;1.37;1.27;;;;;;;25.21;42.61;98872.33;1715047;82;21263;-42
2021/09/01 03:31:01;;;;;;;1.40;1.30;;;;;;;25.22;42.60;98872.17;1717830;82;21092;-45
2021/09/01 03:33:27;;;;;;;1.40;1.22;;;;;;;25.23;42.58;98873.00;1722423;82;21080;-42
2021/09/01 03:35:54;;;;;;;1.32;1.22;;;;;;;25.25;42.55;98871.02;1740073;81;21086;-43
2021/09/01 03:38:20;;;;;;;1.30;1.20;;;;;;;25.31;42.47;98883.01;1712417;82;21797;-42
2021/09/01 03:40:47;;;;;;;1.45;1.35;;;;;;;25.39;42.29;98871.75;1707193;82;21099;-43
2021/09/01 03:43:13;;;;;;;1.40;1.30;;;;;;;25.51;42.11;98880.36;1708125;82;21105;-44
2021/09/01 03:45:40;;;;;;;1.17;1.17;;;;;;;25.65;41.83;98880.22;1715395;82;21132;-45
2021/09/01 03:48:06;;;;;;;1.40;1.30;;;;;;;25.81;41.54;98874.55;1704723;82;21025;-44
2021/09/01 03:50:33;;;;;;;1.65;1.37;;;;;;;25.97;41.24;98875.08;1712240;82;21054;-44
2021/09/01 03:53:00;;;;;;;1.57;1.22;;;;;;;26.14;40.93;98874.06;1684618;83;21102;-44
2021/09/01 03:55:27;;;;;;;1.22;1.12;;;;;;;26.30;40.59;98867.31;1671996;84;21031;-43
2021/09/01 03:57:55;;;;;;;1.30;1.07;;;;;;;26.48;40.25;98874.39;1730133;81;21049;-44
2021/09/01 04:00:22;;;;;;;1.35;1.25;;;;;;;26.58;39.99;98875.53;1727568;81;20990;-42
2021/09/01 04:02:49;;;;;;;1.22;1.15;;;;;;;26.64;39.80;98877.06;1738632;81;21160;-42
2021/09/01 04:05:16;;;;;;;1.30;1.20;;;;;;;26.68;39.68;98878.42;1719567;81;21078;-43
2021/09/01 04:07:43;;;;;;;1.25;1.15;;;;;;;26.70;39.58;98875.55;1730426;81;21069;-43
2021/09/01 04:10:10;;;;;;;1.27;1.17;;;;;;;26.69;39.54;98870.64;1724933;81;21444;-43
2021/09/01 04:12:37;;;;;;;1.05;1.00;;;;;;;26.69;39.51;98876.04;1733287;82;21053;-43
2021/09/01 04:15:05;;;;;;;1.30;1.20;;;;;;;26.66;39.47;98870.15;1725308;81;21004;-42
2021/09/01 04:17:32;;;;;;;1.32;1.22;;;;;;;26.65;39.49;98869.83;1711653;82;21148;-43
2021/09/01 04:19:58;;;;;;;1.17;1.15;;;;;;;26.64;39.52;98874.36;1675396;83;21467;-43
2021/09/01 04:22:24;;;;;;;1.72;1.20;;;;;;;26.62;39.49;98864.23;1692618;81;22004;-45
2021/09/01 04:24:51;;;;;;;1.25;1.15;;;;;;;26.61;39.47;98865.27;1721686;81;22022;-47
2021/09/01 04:27:17;;;;;;;1.15;1.12;;;;;;;26.59;39.50;98863.22;1706467;82;22191;-44
2021/09/01 04:29:44;;;;;;;1.10;1.00;;;;;;;26.56;39.53;98856.81;1706980;83;21186;-43
2021/09/01 04:32:11;;;;;;;1.10;1.00;;;;;;;26.55;39.56;98860.54;1691104;83;21048;-43
2021/09/01 04:34:37;;;;;;;1.12;1.02;;;;;;;26.53;39.53;98858.53;1689990;83;21064;-43
2021/09/01 04:37:04;;;;;;;1.62;1.50;;;;;;;26.53;39.55;98861.23;1709471;83;21690;-43
2021/09/01 04:39:30;;;;;;;1.10;1.00;;;;;;;26.54;39.56;98865.59;1717126;82;22250;-43
2021/09/01 04:41:57;;;;;;;1.20;1.20;;;;;;;26.57;39.49;98864.42;1691504;82;22048;-43
2021/09/01 04:44:24;;;;;;;1.65;1.25;;;;;;;26.61;39.42;98867.09;1714498;82;21232;-45
2021/09/01 04:46:50;;;;;;;1.10;1.10;;;;;;;26.65;39.38;98867.97;1707330;82;21128;-42
2021/09/01 04:49:17;;;;;;;1.50;1.10;;;;;;;26.67;39.29;98871.33;1687891;83;21106;-43
2021/09/01 04:51:44;;;;;;;0.90;0.90;;;;;;;26.69;39.22;98868.45;1699393;83;21544;-43
2021/09/01 04:54:11;;;;;;;1.22;1.12;;;;;;;26.68;39.22;98874.38;1692171;83;21095;-42
2021/09/01 04:56:37;;;;;;;0.93;0.93;;;;;;;26.66;39.24;98876.41;1685029;83;21566;-42
2021/09/01 04:59:04;;;;;;;1.30;1.10;;;;;;;26.64;39.22;98874.36;1691368;83;21513;-42
2021/09/01 05:01:30;;;;;;;1.27;1.17;;;;;;;26.63;39.25;98872.70;1671292;83;21619;-42
2021/09/01 05:03:57;;;;;;;1.05;1.00;;;;;;;26.61;39.27;98873.36;1695809;83;21070;-42
2021/09/01 05:06:26;;;;;;;1.30;1.20;;;;;;;26.59;39.28;98861.87;1692233;83;21222;-42
2021/09/01 05:08:52;;;;;;;1.20;1.10;;;;;;;26.58;39.33;98858.86;1678383;83;21613;-42
2021/09/01 05:11:18;;;;;;;1.02;1.00;;;;;;;26.57;39.34;98858.51;1694271;82;21609;-43
2021/09/01 05:13:45;;;;;;;1.40;1.30;;;;;;;26.56;39.32;98859.51;1685803;83;21212;-43
2021/09/01 05:16:12;;;;;;;2.50;1.50;;;;;;;26.56;39.36;98868.13;1699988;81;21166;-43
2021/09/01 05:18:39;;;;;;;1.02;0.95;;;;;;;26.55;39.39;98866.45;1708953;81;21078;-45
2021/09/01 05:21:06;;;;;;;1.40;1.20;;;;;;;26.53;39.37;98870.67;1719194;81;21110;-43
2021/09/01 05:23:34;;;;;;;1.02;1.00;;;;;;;26.53;39.36;98866.63;1694441;82;21083;-44
2021/09/01 05:26:04;;;;;;;1.80;1.02;;;;;;;26.54;39.35;98867.45;1698391;82;21063;-44
2021/09/01 05:28:33;;;;;;;1.57;1.27;;;;;;;26.53;39.34;98866.63;1723339;82;21177;-42
2021/09/01 05:31:00;;;;;;;1.40;1.30;;;;;;;26.55;39.35;98871.33;1721378;81;21702;-47
2021/09/01 05:33:34;;;;;;;1.02;1.02;;;;;;;26.55;39.32;98868.64;1709904;82;21167;-44
2021/09/01 05:36:02;;;;;;;1.32;1.22;;;;;;;26.55;39.31;98867.28;1725538;81;21574;-43
2021/09/01 05:38:28;;;;;;;1.40;1.25;;;;;;;26.54;39.30;98862.89;1713964;81;21021;-44
2021/09/01 05:40:57;;;;;;;1.42;1.32;;;;;;;26.54;39.31;98866.94;1700748;82;21060;-43
2021/09/01 05:43:24;;;;;;;1.40;1.30;;;;;;;26.53;39.32;98869.32;1664932;83;21055;-43
2021/09/01 05:45:51;;;;;;;2.25;1.30;;;;;;;26.53;39.33;98877.41;1691435;82;21902;-43
2021/09/01 05:48:21;;;;;;;0.95;0.95;;;;;;;26.53;39.33;98871.16;1694829;83;21077;-43
2021/09/01 05:50:53;;;;;;;1.57;1.32;;;;;;;26.52;39.32;98864.92;1694361;82;21110;-43
2021/09/01 05:53:22;;;;;;;1.30;1.20;;;;;;;26.53;39.29;98870.67;1698212;82;21062;-44
2021/09/01 05:55:51;;;;;;;1.20;1.10;;;;;;;26.54;39.29;98866.94;1709685;82;21556;-45
2021/09/01 05:58:19;;;;;;;1.27;1.17;;;;;;;26.56;39.25;98859.51;1650677;84;21486;-43
2021/09/01 06:00:51;;;;;;;1.20;1.10;;;;;;;26.57;39.23;98854.46;1660378;84;20996;-46
2021/09/01 06:03:30;;;;;;;1.40;1.05;;;;;;;26.59;39.20;98855.64;1663085;84;21559;-44
2021/09/01 06:06:00;;;;;;;1.30;1.20;;;;;;;26.60;39.20;98846.03;1669827;84;21141;-43
2021/09/01 06:08:33;;;;;;;1.87;1.40;;;;;;;26.61;39.15;98848.20;1655045;84;21701;-44
2021/09/01 06:11:05;;;;;;;1.40;1.30;;;;;;;26.62;39.10;98853.44;1664633;83;21118;-43
2021/09/01 06:13:33;;;;;;;1.57;1.17;;;;;;;26.64;39.08;98859.52;1718067;82;21641;-44
2021/09/01 06:16:00;;;;;;;1.55;1.20;;;;;;;26.66;39.04;98857.52;1720643;82;22444;-44
2021/09/01 06:18:27;;;;;;;1.20;1.20;;;;;;;26.68;39.01;98860.88;1681375;82;21443;-44
2021/09/01 06:20:54;;;;;;;1.15;1.05;;;;;;;26.69;38.98;98863.89;1689359;82;21053;-44
2021/09/01 06:23:20;;;;;;;1.40;1.30;;;;;;;26.71;38.93;98863.73;1713968;81;21424;-43
2021/09/01 06:25:47;;;;;;;1.62;1.30;;;;;;;26.72;38.92;98870.81;1709965;82;21042;-42
2021/09/01 06:28:15;;;;;;;1.50;1.40;;;;;;;26.74;38.89;98870.65;1674569;84;22209;-42
2021/09/01 06:30:41;;;;;;;1.27;1.17;;;;;;;26.74;38.85;98873.34;1688673;84;21583;-43
2021/09/01 06:33:10;;;;;;;1.45;1.35;;;;;;;26.75;38.87;98870.96;1688657;84;22213;-47
2021/09/01 06:35:38;;;;;;;1.60;1.50;;;;;;;26.75;38.83;98876.36;1683743;84;21054;-43
2021/09/01 06:38:06;;;;;;;1.20;1.10;;;;;;;26.76;38.81;98870.80;1657252;82;21052;-43
2021/09/01 06:40:32;;;;;;;1.52;1.40;;;;;;;26.76;38.80;98872.66;1702622;83;21048;-43
2021/09/01 06:43:00;;;;;;;1.25;1.15;;;;;;;26.77;38.80;98879.75;1709605;82;21053;-43
2021/09/01 06:45:26;;;;;;;1.35;1.25;;;;;;;26.77;38.79;98879.75;1704058;82;21101;-47
2021/09/01 06:47:53;;;;;;;1.20;1.20;;;;;;;26.77;38.76;98875.70;1712780;82;21581;-43
2021/09/01 06:50:22;;;;;;;1.27;1.17;;;;;;;26.77;38.76;98879.23;1700525;82;21570;-43
2021/09/01 06:52:49;;;;;;;1.40;1.30;;;;;;;26.78;38.73;98870.63;1695223;82;21089;-43
2021/09/01 06:55:16;;;;;;;1.15;1.05;;;;;;;26.77;38.75;98867.61;1683380;83;21102;-43
2021/09/01 06:57:43;;;;;;;1.42;1.32;;;;;;;26.78;38.72;98867.92;1682531;83;22134;-44
2021/09/01 07:00:13;;;;;;;1.30;1.20;;;;;;;26.78;38.70;98870.63;1659848;84;21099;-47
2021/09/01 07:02:39;;;;;;;1.40;1.12;;;;;;;26.79;38.70;98864.22;1689775;83;21055;-43
2021/09/01 07:05:08;;;;;;;1.50;1.40;;;;;;;26.78;38.70;98871.48;1664452;83;21110;-43
2021/09/01 07:07:34;;;;;;;1.35;1.25;;;;;;;26.77;38.73;98864.91;1686170;83;21031;-44
2021/09/01 07:10:01;;;;;;;1.60;1.45;;;;;;;26.77;38.70;98868.95;1682068;83;21120;-43
2021/09/01 07:12:29;;;;;;;1.32;1.10;;;;;;;26.77;38.70;98867.61;1691899;83;21055;-46
2021/09/01 07:14:55;;;;;;;1.32;1.22;;;;;;;26.76;38.71;98869.95;1689124;83;21522;-44
2021/09/01 07:17:22;;;;;;;1.37;1.20;;;;;;;26.76;38.71;98871.31;1702196;83;21636;-43
2021/09/01 07:19:48;;;;;;;1.30;1.20;;;;;;;26.76;38.70;98876.70;1674193;83;22273;-42
2021/09/01 07:22:15;;;;;;;1.42;1.20;;;;;;;26.75;38.70;98873.66;1710739;82;23325;-43
2021/09/01 07:24:41;;;;;;;1.17;1.10;;;;;;;26.76;38.73;98878.89;1693671;83;20998;-43
2021/09/01 07:27:08;;;;;;;1.30;1.15;;;;;;;26.77;38.70;98879.23;1691971;81;21097;-42
2021/09/01 07:29:34;;;;;;;1.62;1.40;;;;;;;26.77;38.68;98875.19;1674578;84;21054;-42
2021/09/01 07:32:01;;;;;;;1.20;1.10;;;;;;;26.78;38.66;98877.37;1673730;84;21062;-43
2021/09/01 07:34:27;;;;;;;1.27;1.17;;;;;;;26.80;38.65;98876.71;1683207;84;22937;-43
2021/09/01 07:36:54;;;;;;;1.42;1.20;;;;;;;26.81;38.61;98875.68;1654139;84;21137;-43
2021/09/01 07:39:20;;;;;;;1.27;1.20;;;;;;;26.81;38.60;98877.03;1702566;82;21040;-44
2021/09/01 07:41:47;;;;;;;1.40;1.30;;;;;;;26.81;38.58;98871.11;1707740;82;20999;-43
2021/09/01 07:44:14;;;;;;;1.20;1.10;;;;;;;26.83;38.58;98877.69;1708539;82;21078;-43
2021/09/01 07:46:40;;;;;;;1.37;1.27;;;;;;;26.82;38.57;98874.16;1705412;82;22258;-43
2021/09/01 07:49:07;;;;;;;1.00;1.00;;;;;;;26.84;38.54;98875.34;1663541;82;20941;-45
2021/09/01 07:51:33;;;;;;;1.40;1.30;;;;;;;26.84;38.54;98876.17;1677466;83;21060;-44
2021/09/01 07:54:00;;;;;;;1.87;1.32;;;;;;;26.84;38.50;98876.17;1688182;83;20966;-49
2021/09/01 07:56:26;;;;;;;1.30;1.20;;;;;;;26.85;38.51;98874.33;1662425;83;21123;-45
2021/09/01 07:58:53;;;;;;;1.30;1.20;;;;;;;26.85;38.50;98871.64;1708773;81;21099;-43
2021/09/01 08:01:19;;;;;;;1.87;1.15;;;;;;;26.85;38.47;98877.03;1725468;82;21191;-43
2021/09/01 08:03:46;;;;;;;1.25;0.93;;;;;;;26.87;38.45;98880.39;1714352;82;21044;-43
2021/09/01 08:06:13;;;;;;;1.02;1.00;;;;;;;26.88;38.45;98879.36;1726113;81;21061;-43
2021/09/01 08:08:41;;;;;;;1.40;1.30;;;;;;;26.88;38.43;98882.06;1713195;82;21557;-49
2021/09/01 08:11:09;;;;;;;1.17;1.10;;;;;;;26.90;38.41;98880.05;1717794;82;22152;-43
2021/09/01 08:13:36;;;;;;;1.25;1.20;;;;;;;26.91;38.38;98876.31;1725667;81;20993;-44
2021/09/01 08:16:04;;;;;;;1.27;1.17;;;;;;;26.92;38.36;98879.36;1715865;82;21041;-45
2021/09/01 08:18:31;;;;;;;2.12;1.37;;;;;;;26.93;38.31;98879.68;1671049;83;20986;-44
2021/09/01 08:20:57;;;;;;;1.20;1.10;;;;;;;26.96;38.27;98876.63;1688939;82;21115;-43
2021/09/01 08:23:24;;;;;;;1.45;1.35;;;;;;;26.99;38.22;98876.30;1718978;81;21126;-43
2021/09/01 08:25:50;;;;;;;1.12;1.10;;;;;;;27.01;38.17;98878.30;1686520;83;21072;-44
2021/09/01 08:28:16;;;;;;;2.25;1.00;;;;;;;27.03;38.16;98875.43;1689595;83;21077;-43
2021/09/01 08:30:43;;;;;;;1.07;1.07;;;;;;;27.05;38.10;98874.25;1682171;84;21037;-44
2021/09/01 08:33:09;;;;;;;1.12;1.00;;;;;;;27.08;38.04;98880.31;1679307;84;21148;-44
2021/09/01 08:35:36;;;;;;;1.20;1.10;;;;;;;27.09;38.00;98879.31;1684510;84;21076;-44
2021/09/01 08:38:03;;;;;;;0.95;0.93;;;;;;;27.10;37.98;98874.22;1681651;82;21121;-42
2021/09/01 08:40:31;;;;;;;1.27;1.10;;;;;;;27.12;37.95;98873.53;1698365;82;21069;-44
2021/09/01 08:42:57;;;;;;;1.30;1.20;;;;;;;27.13;37.92;98874.71;1666444;83;21050;-45
2021/09/01 08:45:24;;;;;;;1.55;1.45;;;;;;;27.15;37.92;98874.54;1701638;82;21084;-42
2021/09/01 08:47:51;;;;;;;1.37;1.25;;;;;;;27.16;37.88;98877.58;1697854;81;21244;-43
2021/09/01 08:50:18;;;;;;;1.25;0.95;;;;;;;27.15;37.88;98874.54;1712662;82;21088;-42
2021/09/01 08:52:44;;;;;;;1.00;0.80;;;;;;;27.16;37.86;98876.23;1684806;83;21086;-43
2021/09/01 08:55:13;;;;;;;2.47;1.15;;;;;;;27.15;37.85;98876.75;1689892;83;21135;-42
2021/09/01 08:57:39;;;;;;;1.10;1.00;;;;;;;27.15;37.86;98877.23;1686686;83;21077;-42
2021/09/01 09:00:08;;;;;;;1.17;1.10;;;;;;;27.15;37.87;98882.64;1687181;82;21037;-43
2021/09/01 09:02:34;;;;;;;1.65;1.30;;;;;;;27.13;37.86;98875.23;1679509;83;21465;-43
2021/09/01 09:05:07;;;;;;;1.35;1.25;;;;;;;27.13;37.88;98874.71;1693160;83;21122;-43
2021/09/01 09:07:54;;;;;;;1.17;0.80;;;;;;;27.13;37.89;98879.28;1692298;83;21090;-43
2021/09/01 09:10:39;;;;;;;1.42;1.32;;;;;;;27.13;37.88;98883.33;1688916;83;21213;-43
2021/09/01 09:13:25;;;;;;;1.20;1.10;;;;;;;27.12;37.88;98876.23;1674125;83;21848;-43
2021/09/01 09:16:08;;;;;;;1.00;1.00;;;;;;;27.13;37.88;98884.67;1696506;82;21054;-42
2021/09/01 09:18:36;;;;;;;1.20;1.10;;;;;;;27.11;37.87;98881.32;1697656;82;21731;-43
2021/09/01 09:21:15;;;;;;;1.85;1.35;;;;;;;27.10;37.90;98877.79;1685786;82;21034;-43
2021/09/01 09:23:43;;;;;;;0.98;0.98;;;;;;;27.12;37.89;98875.75;1714159;81;21122;-46
2021/09/01 09:26:25;;;;;;;1.17;1.02;;;;;;;27.13;37.90;98884.67;1710957;82;21158;-42
2021/09/01 09:29:08;;;;;;;1.02;1.00;;;;;;;27.13;37.87;98876.58;1681450;84;21741;-43
2021/09/01 09:31:36;;;;;;;1.27;1.17;;;;;;;27.15;37.87;98877.23;1654147;85;21113;-42
2021/09/01 09:34:09;;;;;;;1.30;1.20;;;;;;;27.15;37.82;98877.23;1677842;84;21135;-43
2021/09/01 09:36:36;;;;;;;1.30;1.20;;;;;;;27.17;37.81;98875.23;1688557;83;21112;-42
2021/09/01 09:39:04;;;;;;;1.25;1.15;;;;;;;27.18;37.78;98870.14;1669755;83;21172;-44
2021/09/01 09:41:30;;;;;;;1.37;1.02;;;;;;;27.20;37.78;98873.50;1691005;83;21164;-42
2021/09/01 09:44:00;;;;;;;1.22;1.12;;;;;;;27.21;37.73;98872.49;1697505;83;21478;-42
2021/09/01 09:46:28;;;;;;;1.70;1.37;;;;;;;27.22;37.72;98868.27;1697759;82;21061;-44
2021/09/01 09:49:06;;;;;;;1.27;1.17;;;;;;;27.24;37.70;98868.09;1684639;83;21697;-43
2021/09/01 09:51:41;;;;;;;1.77;1.20;;;;;;;27.25;37.64;98867.92;1700798;81;22666;-42
2021/09/01 09:54:17;;;;;;;1.85;0.95;;;;;;;27.27;37.61;98858.30;1692206;83;21110;-42
2021/09/01 09:56:45;;;;;;;1.32;1.22;;;;;;;27.29;37.59;98856.28;1667797;83;21094;-42
2021/09/01 09:59:21;;;;;;;1.07;1.07;;;;;;;27.30;37.57;98858.47;1698346;82;21147;-42
2021/09/01 10:01:49;;;;;;;1.15;1.05;;;;;;;27.30;37.55;98857.95;1689860;83;21446;-42
2021/09/01 10:04:16;;;;;;;1.20;1.10;;;;;;;27.30;37.55;98853.06;1707703;82;21803;-45
2021/09/01 10:06:44;;;;;;;1.10;1.05;;;;;;;27.31;37.55;98850.70;1720378;82;20983;-45
2021/09/01 10:09:11;;;;;;;1.40;1.30;;;;;;;27.31;37.53;98843.95;1720564;82;21520;-43
2021/09/01 10:11:40;;;;;;;1.37;1.27;;;;;;;27.31;37.53;98850.19;1717495;82;21527;-43
2021/09/01 10:14:08;;;;;;;1.00;0.90;;;;;;;27.32;37.49;98849.67;1670955;82;21046;-43
2021/09/01 10:16:37;;;;;;;0.95;0.95;;;;;;;27.34;37.46;98849.84;1713412;81;21117;-43
2021/09/01 10:19:19;;;;;;;0.85;0.85;;;;;;;27.36;37.44;98849.15;1708510;82;21046;-43
2021/09/01 10:21:55;;;;;;;1.00;1.00;;;;;;;27.39;37.42;98843.39;1680460;81;21122;-42
2021/09/01 10:24:34;;;;;;;1.42;1.17;;;;;;;27.42;37.34;98838.99;1729182;81;25309;-42
2021/09/01 10:27:16;;;;;;;1.30;1.20;;;;;;;27.45;37.29;98833.72;1712746;82;21140;-44
2021/09/01 10:29:48;;;;;;;1.22;1.12;;;;;;;27.50;37.21;98830.49;1699066;83;21134;-42
2021/09/01 10:32:43;;;;;;;1.37;1.27;;;;;;;27.53;37.14;98828.80;1706735;83;21108;-42
2021/09/01 10:35:19;;;;;;;1.70;1.10;;;;;;;27.56;37.09;98829.78;1683410;82;21108;-43
2021/09/01 10:37:53;;;;;;;1.37;0.95;;;;;;;27.61;37.03;98827.39;1697532;82;20990;-42
2021/09/01 10:40:31;;;;;;;1.85;1.20;;;;;;;27.64;36.94;98828.38;1688256;83;21484;-44
2021/09/01 10:43:00;;;;;;;1.10;1.10;;;;;;;27.68;36.88;98828.34;1703358;82;21167;-42
2021/09/01 10:45:34;;;;;;;1.35;1.20;;;;;;;27.70;36.85;98827.64;1697030;83;21486;-42
2021/09/01 10:48:03;;;;;;;1.20;1.10;;;;;;;27.71;36.80;98818.52;1692348;82;21032;-43
2021/09/01 10:50:39;;;;;;;1.30;1.20;;;;;;;27.74;36.79;98822.71;1702156;82;21054;-43
2021/09/01 10:53:27;;;;;;;0.80;0.80;;;;;;;27.74;36.73;98824.92;1693763;83;21099;-43
2021/09/01 10:56:05;;;;;;;1.30;1.00;;;;;;;27.75;36.75;98820.35;1688474;83;21451;-42
2021/09/01 10:58:40;;;;;;;1.27;1.17;;;;;;;27.75;36.73;98825.23;1676680;83;21036;-42
2021/09/01 11:01:19;;;;;;;1.25;1.00;;;;;;;27.75;36.71;98826.59;1651588;84;21158;-42
2021/09/01 11:04:02;;;;;;;0.93;0.93;;;;;;;27.75;36.71;98826.59;1672402;84;21111;-42
2021/09/01 11:06:27;;;;;;;1.00;0.95;;;;;;;27.76;36.72;98829.63;1674849;84;21518;-45
2021/09/01 11:09:17;;;;;;;1.17;1.07;;;;;;;27.76;36.71;98832.34;1665097;84;21156;-43
2021/09/01 11:11:57;;;;;;;1.10;1.00;;;;;;;27.76;36.72;98834.20;1678313;84;20970;-44
2021/09/01 11:14:43;;;;;;;1.42;1.32;;;;;;;27.76;36.71;98832.34;1649446;84;21138;-42
2021/09/01 11:17:14;;;;;;;1.10;1.00;;;;;;;27.76;36.72;98828.80;1681103;84;21028;-45
2021/09/01 11:19:42;;;;;;;1.20;1.10;;;;;;;27.75;36.73;98828.46;1660782;84;21127;-44
2021/09/01 11:22:12;;;;;;;2.47;1.17;;;;;;;27.75;36.73;98836.56;1702912;82;21112;-44
2021/09/01 11:24:53;;;;;;;1.40;1.30;;;;;;;27.73;36.76;98835.39;1717145;82;21046;-42
2021/09/01 11:27:23;;;;;;;1.45;1.00;;;;;;;27.73;36.77;98836.75;1700396;81;21108;-42
2021/09/01 11:30:00;;;;;;;1.10;1.10;;;;;;;27.73;36.79;98832.69;1690972;83;21105;-43
2021/09/01 11:32:27;;;;;;;1.10;1.00;;;;;;;27.72;36.78;98825.63;1698409;82;21029;-45
2021/09/01 11:34:53;;;;;;;1.07;1.05;;;;;;;27.73;36.79;98819.70;1685336;83;21580;-43
2021/09/01 11:37:22;;;;;;;0.80;0.80;;;;;;;27.72;36.81;98813.95;1710464;82;21235;-43
2021/09/01 11:39:50;;;;;;;0.90;0.90;;;;;;;27.71;36.80;98818.52;1721551;80;21121;-45
2021/09/01 11:42:17;;;;;;;1.10;1.10;;;;;;;27.74;36.80;98826.77;1739127;81;21989;-43
2021/09/01 11:44:43;;;;;;;1.25;1.15;;;;;;;27.73;36.80;98811.07;1730523;81;21163;-43